createdAt,value
2023-03-30T00:02:12.864Z,99877.09
2023-03-30T00:04:43.074Z,99860.81
2023-03-30T00:07:11.660Z,99865.41
2023-03-30T00:09:42.398Z,99824.84
2023-03-30T00:12:10.479Z,99834.81
2023-03-30T00:14:41.437Z,99833.34
2023-03-30T00:17:09.590Z,99823.16
2023-03-30T00:19:37.757Z,99829.06
2023-03-30T00:22:07.660Z,99859.72
2023-03-30T00:24:35.820Z,99853.88
2023-03-30T00:27:03.873Z,99844.59
2023-03-30T00:29:31.530Z,99844.34
2023-03-30T00:31:59.245Z,99828.66
2023-03-30T00:34:26.960Z,99837.69
2023-03-30T00:36:54.672Z,99823.50
2023-03-30T00:39:26.581Z,99818.84
2023-03-30T00:41:54.259Z,99820.34
2023-03-30T00:44:59.251Z,99819.91
2023-03-30T00:47:27.136Z,99808.91
2023-03-30T00:49:54.847Z,99802.50
2023-03-30T00:52:24.981Z,99793.97
2023-03-30T00:54:55.166Z,99800.00
2023-03-30T00:57:23.957Z,99792.16
2023-03-30T00:59:52.344Z,99797.22
2023-03-30T01:02:21.599Z,99795.44
2023-03-30T01:04:51.608Z,99787.81
2023-03-30T01:07:19.380Z,99774.59
2023-03-30T01:09:48.140Z,99765.34
2023-03-30T01:12:17.194Z,99757.66
2023-03-30T01:14:45.164Z,99745.38
2023-03-30T01:17:17.729Z,99742.41
2023-03-30T01:20:12.412Z,99750.75
2023-03-30T01:23:14.631Z,99755.34
2023-03-30T01:25:59.452Z,99753.22
2023-03-30T01:28:37.798Z,99739.66
2023-03-30T01:31:16.348Z,99753.97
2023-03-30T01:34:15.116Z,99746.50
2023-03-30T01:37:04.199Z,99752.53
2023-03-30T01:39:44.673Z,99758.69
2023-03-30T01:42:19.107Z,99743.16
2023-03-30T01:44:52.864Z,99755.56
2023-03-30T01:47:23.794Z,99758.06
2023-03-30T01:49:57.346Z,99735.16
2023-03-30T01:52:28.703Z,99746.72
2023-03-30T01:54:59.475Z,99748.44
2023-03-30T01:57:32.558Z,99745.41
2023-03-30T02:00:07.595Z,99731.19
2023-03-30T02:02:35.599Z,99729.06
2023-03-30T02:05:06.355Z,99728.09
2023-03-30T02:07:35.814Z,99749.34
2023-03-30T02:10:08.066Z,99725.00
2023-03-30T02:12:36.497Z,99727.00
2023-03-30T02:15:07.526Z,99728.69
2023-03-30T02:17:35.819Z,99738.88
2023-03-30T02:20:08.371Z,99730.16
2023-03-30T02:22:36.269Z,99717.16
2023-03-30T02:25:06.467Z,99736.09
2023-03-30T02:27:35.116Z,99731.34
2023-03-30T02:30:02.852Z,99729.63
2023-03-30T02:32:38.148Z,99727.59
2023-03-30T02:35:22.265Z,99727.88
2023-03-30T02:38:14.874Z,99740.06
2023-03-30T02:40:50.594Z,99728.75
2023-03-30T02:43:26.949Z,99725.25
2023-03-30T02:46:02.199Z,99705.25
2023-03-30T02:48:40.059Z,99710.19
2023-03-30T02:51:21.108Z,99714.94
2023-03-30T02:53:53.421Z,99695.94
2023-03-30T02:56:25.531Z,99682.41
2023-03-30T02:58:56.485Z,99693.56
2023-03-30T03:01:29.054Z,99670.94
2023-03-30T03:03:59.064Z,99682.66
2023-03-30T03:06:27.486Z,99671.44
2023-03-30T03:08:56.623Z,99681.78
2023-03-30T03:11:25.799Z,99695.03
2023-03-30T03:13:53.547Z,99700.28
2023-03-30T03:16:21.396Z,99697.91
2023-03-30T03:18:49.629Z,99707.03
2023-03-30T03:21:17.337Z,99710.38
2023-03-30T03:23:48.242Z,99697.97
2023-03-30T03:26:15.956Z,99694.66
2023-03-30T03:28:45.007Z,99691.28
2023-03-30T03:31:14.064Z,99694.91
2023-03-30T03:33:41.814Z,99697.91
2023-03-30T03:36:12.204Z,99705.25
2023-03-30T03:38:40.008Z,99699.25
2023-03-30T03:41:08.271Z,99691.56
2023-03-30T03:43:36.697Z,99695.78
2023-03-30T03:46:05.881Z,99690.75
2023-03-30T03:48:33.647Z,99699.13
2023-03-30T03:51:01.504Z,99697.03
2023-03-30T03:53:29.827Z,99700.00
2023-03-30T03:55:57.505Z,99701.25
2023-03-30T03:58:26.368Z,99697.75
2023-03-30T04:00:59.365Z,99682.94
2023-03-30T04:03:28.644Z,99669.25
2023-03-30T04:06:00.286Z,99670.97
2023-03-30T04:08:28.551Z,99662.03
2023-03-30T04:10:56.301Z,99657.41
2023-03-30T04:13:23.994Z,99659.19
2023-03-30T04:15:51.815Z,99661.47
2023-03-30T04:18:19.570Z,99654.09
2023-03-30T04:20:49.355Z,99654.50
2023-03-30T04:23:21.755Z,99643.72
2023-03-30T04:25:51.793Z,99646.66
2023-03-30T04:28:21.835Z,99658.84
2023-03-30T04:30:50.721Z,99666.84
2023-03-30T04:33:18.464Z,99663.25
2023-03-30T04:35:46.749Z,99654.91
2023-03-30T04:38:22.576Z,99656.34
2023-03-30T04:40:50.755Z,99662.91
2023-03-30T04:43:20.039Z,99646.69
2023-03-30T04:45:51.853Z,99655.63
2023-03-30T04:48:20.691Z,99646.81
2023-03-30T04:50:50.295Z,99640.38
2023-03-30T04:53:19.777Z,99641.94
2023-03-30T04:55:49.742Z,99650.59
2023-03-30T04:58:17.828Z,99655.34
2023-03-30T05:00:45.942Z,99653.72
2023-03-30T05:03:13.717Z,99652.03
2023-03-30T05:05:41.584Z,99656.25
2023-03-30T05:08:09.252Z,99654.56
2023-03-30T05:10:38.305Z,99648.72
2023-03-30T05:13:06.116Z,99645.63
2023-03-30T05:15:33.778Z,99648.41
2023-03-30T05:18:01.472Z,99643.34
2023-03-30T05:20:29.204Z,99632.44
2023-03-30T05:22:56.903Z,99629.09
2023-03-30T05:25:24.795Z,99630.34
2023-03-30T05:27:53.934Z,99626.59
2023-03-30T05:30:21.655Z,99628.53
2023-03-30T05:32:49.329Z,99618.44
2023-03-30T05:35:17.047Z,99624.06
2023-03-30T05:37:44.717Z,99620.28
2023-03-30T05:40:13.284Z,99632.03
2023-03-30T05:42:41.028Z,99627.69
2023-03-30T05:45:11.812Z,99630.16
2023-03-30T05:47:39.588Z,99631.69
2023-03-30T05:50:09.266Z,99628.25
2023-03-30T05:52:37.000Z,99624.13
2023-03-30T05:55:05.102Z,99624.06
2023-03-30T05:57:33.601Z,99625.16
2023-03-30T06:00:01.577Z,99633.00
2023-03-30T06:02:30.849Z,99635.03
2023-03-30T06:04:58.679Z,99638.66
2023-03-30T06:07:26.494Z,99629.38
2023-03-30T06:09:54.122Z,99630.00
2023-03-30T06:12:22.097Z,99619.59
2023-03-30T06:14:49.735Z,99627.56
2023-03-30T06:17:17.529Z,99640.06
2023-03-30T06:19:46.573Z,99629.31
2023-03-30T06:22:14.339Z,99635.44
2023-03-30T06:24:41.974Z,99641.31
2023-03-30T06:27:09.674Z,99648.00
2023-03-30T06:29:38.353Z,99633.34
2023-03-30T06:32:06.707Z,99648.94
2023-03-30T06:34:34.411Z,99658.13
2023-03-30T06:37:03.558Z,99654.72
2023-03-30T06:39:31.364Z,99655.13
2023-03-30T06:41:59.080Z,99653.31
2023-03-30T06:44:27.123Z,99658.28
2023-03-30T06:46:54.824Z,99650.63
2023-03-30T06:49:22.525Z,99643.09
2023-03-30T06:51:50.424Z,99651.88
2023-03-30T06:54:20.452Z,99647.84
2023-03-30T06:56:48.429Z,99653.16
2023-03-30T06:59:16.473Z,99638.91
2023-03-30T07:01:44.632Z,99661.69
2023-03-30T07:04:12.774Z,99659.34
2023-03-30T07:06:40.468Z,99669.09
2023-03-30T07:09:08.204Z,99661.56
2023-03-30T07:11:37.244Z,99681.13
2023-03-30T07:14:05.441Z,99678.72
2023-03-30T07:16:33.188Z,99690.28
2023-03-30T07:19:00.897Z,99667.13
2023-03-30T07:21:28.635Z,99681.63
2023-03-30T07:23:56.798Z,99689.44
2023-03-30T07:26:24.577Z,99694.13
2023-03-30T07:28:53.668Z,99693.72
2023-03-30T07:31:21.917Z,99691.97
2023-03-30T07:33:49.719Z,99677.06
2023-03-30T07:36:17.829Z,99686.69
2023-03-30T07:38:45.685Z,99696.19
2023-03-30T07:41:15.606Z,99693.13
2023-03-30T07:43:43.629Z,99695.06
2023-03-30T07:46:13.193Z,99689.03
2023-03-30T07:48:41.285Z,99708.97
2023-03-30T07:51:10.928Z,99704.84
2023-03-30T07:53:38.881Z,99710.59
2023-03-30T07:56:07.372Z,99727.03
2023-03-30T07:58:35.037Z,99711.78
2023-03-30T08:01:05.035Z,99713.69
2023-03-30T08:03:34.533Z,99735.81
2023-03-30T08:06:05.521Z,99712.38
2023-03-30T08:08:34.163Z,99712.31
2023-03-30T08:11:02.365Z,99723.25
2023-03-30T08:13:30.324Z,99729.53
2023-03-30T08:15:58.098Z,99733.41
2023-03-30T08:18:27.214Z,99715.25
2023-03-30T08:20:58.060Z,99719.84
2023-03-30T08:23:25.675Z,99735.03
2023-03-30T08:25:53.372Z,99722.16
2023-03-30T08:28:21.625Z,99724.53
2023-03-30T08:30:49.711Z,99696.66
2023-03-30T08:33:17.469Z,99722.19
2023-03-30T08:35:45.521Z,99726.72
2023-03-30T08:38:17.799Z,99708.53
2023-03-30T08:40:46.246Z,99720.66
2023-03-30T08:43:34.637Z,99721.56
2023-03-30T08:46:03.056Z,99699.84
2023-03-30T08:48:37.373Z,99732.03
2023-03-30T08:51:12.885Z,99718.03
2023-03-30T08:53:42.229Z,99725.84
2023-03-30T08:56:15.011Z,99740.25
2023-03-30T08:58:47.061Z,99755.78
2023-03-30T09:01:20.136Z,99730.34
2023-03-30T09:04:00.382Z,99758.88
2023-03-30T09:06:35.214Z,99761.38
2023-03-30T09:09:05.849Z,99756.63
2023-03-30T09:11:35.930Z,99749.22
2023-03-30T09:14:05.997Z,99773.38
2023-03-30T09:16:38.788Z,99770.56
2023-03-30T09:19:12.552Z,99769.47
2023-03-30T09:21:41.148Z,99767.13
2023-03-30T09:24:14.413Z,99726.28
2023-03-30T09:26:49.109Z,99761.09
2023-03-30T09:29:20.627Z,99749.59
2023-03-30T09:31:51.821Z,99757.00
2023-03-30T09:34:27.078Z,99769.06
2023-03-30T09:36:57.823Z,99767.66
2023-03-30T09:39:28.960Z,99768.78
2023-03-30T09:42:14.264Z,99777.03
2023-03-30T09:44:46.238Z,99764.44
2023-03-30T09:47:26.483Z,99774.50
2023-03-30T09:49:58.738Z,99789.94
2023-03-30T09:52:27.614Z,99787.94
2023-03-30T09:54:57.347Z,99763.91
2023-03-30T09:57:27.689Z,99775.50
2023-03-30T09:59:56.470Z,99788.63
2023-03-30T10:02:27.673Z,99789.72
2023-03-30T10:05:02.217Z,99792.09
2023-03-30T10:07:32.729Z,99786.41
2023-03-30T10:10:04.230Z,99797.78
2023-03-30T10:12:31.910Z,99793.50
2023-03-30T10:15:04.136Z,99774.50
2023-03-30T10:17:32.089Z,99775.09
2023-03-30T10:20:25.477Z,99793.78
2023-03-30T10:22:54.916Z,99781.69
2023-03-30T10:25:28.225Z,99789.38
2023-03-30T10:27:57.677Z,99776.78
2023-03-30T10:30:28.365Z,99796.13
2023-03-30T10:32:57.949Z,99788.66
2023-03-30T10:35:27.662Z,99800.34
2023-03-30T10:37:56.901Z,99807.22
2023-03-30T10:40:28.595Z,99791.13
2023-03-30T10:42:58.475Z,99813.19
2023-03-30T10:45:30.070Z,99811.78
2023-03-30T10:48:17.842Z,99787.09
2023-03-30T10:50:50.608Z,99802.31
2023-03-30T10:53:29.045Z,99792.38
2023-03-30T10:56:03.817Z,99765.13
2023-03-30T10:58:42.803Z,99788.19
2023-03-30T11:01:14.004Z,99786.72
2023-03-30T11:03:45.780Z,99804.81
2023-03-30T11:06:18.339Z,99800.03
2023-03-30T11:08:47.912Z,99792.78
2023-03-30T11:11:19.712Z,99796.13
2023-03-30T11:13:51.320Z,99803.31
2023-03-30T11:16:22.256Z,99778.59
2023-03-30T11:18:54.296Z,99803.03
2023-03-30T11:21:27.060Z,99817.78
2023-03-30T11:23:56.422Z,99812.59
2023-03-30T11:26:32.966Z,99803.63
2023-03-30T11:29:07.121Z,99812.72
2023-03-30T11:31:47.072Z,99829.19
2023-03-30T11:34:24.208Z,99811.06
2023-03-30T11:36:56.940Z,99818.22
2023-03-30T11:39:32.105Z,99815.25
2023-03-30T11:42:06.928Z,99822.47
2023-03-30T11:44:34.593Z,99815.16
2023-03-30T11:47:13.893Z,99802.69
2023-03-30T11:49:53.284Z,99807.97
2023-03-30T11:52:29.411Z,99795.34
2023-03-30T11:55:12.351Z,99817.66
2023-03-30T11:57:46.121Z,99797.94
2023-03-30T12:00:34.531Z,99794.25
2023-03-30T12:03:28.661Z,99807.34
2023-03-30T12:06:01.914Z,99803.84
2023-03-30T12:08:44.902Z,99798.88
2023-03-30T12:11:18.422Z,99813.06
2023-03-30T12:13:51.741Z,99809.03
2023-03-30T12:16:21.742Z,99803.47
2023-03-30T12:18:59.056Z,99802.44
2023-03-30T12:21:32.824Z,99807.38
2023-03-30T12:24:06.371Z,99790.22
2023-03-30T12:26:37.857Z,99799.50
2023-03-30T12:29:52.566Z,99800.06
2023-03-30T12:32:08.017Z,99797.50
2023-03-30T12:34:37.190Z,99794.13
2023-03-30T12:37:10.032Z,99792.09
2023-03-30T12:39:44.867Z,99800.41
2023-03-30T12:42:26.356Z,99802.22
2023-03-30T12:45:21.156Z,99805.88
2023-03-30T12:48:07.549Z,99828.59
2023-03-30T12:50:40.843Z,99784.38
2023-03-30T12:53:31.668Z,99799.63
2023-03-30T12:56:04.919Z,99797.38
2023-03-30T12:58:59.926Z,99796.50
2023-03-30T13:01:56.790Z,99812.22
2023-03-30T13:04:26.539Z,99803.59
2023-03-30T13:06:55.768Z,99811.75
2023-03-30T13:09:53.478Z,99808.97
2023-03-30T13:12:29.257Z,99787.44
2023-03-30T13:15:02.560Z,99794.06
2023-03-30T13:17:48.938Z,99781.06
2023-03-30T13:20:28.275Z,99789.38
2023-03-30T13:23:16.756Z,99797.16
2023-03-30T13:25:49.035Z,99772.91
2023-03-30T13:28:46.244Z,99765.81
2023-03-30T13:31:25.749Z,99775.22
2023-03-30T13:34:01.415Z,99789.72
2023-03-30T13:36:31.709Z,99744.50
2023-03-30T13:39:05.412Z,99778.38
2023-03-30T13:41:40.817Z,99797.63
2023-03-30T13:44:24.995Z,99780.34
2023-03-30T13:46:54.730Z,99799.66
2023-03-30T13:49:40.784Z,99803.34
2023-03-30T13:52:12.166Z,99798.78
2023-03-30T13:54:40.881Z,99793.31
2023-03-30T13:57:11.508Z,99801.22
2023-03-30T13:59:43.483Z,99786.59
2023-03-30T14:02:15.348Z,99793.25
2023-03-30T14:04:45.394Z,99784.81
2023-03-30T14:07:17.075Z,99785.91
2023-03-30T14:09:45.556Z,99797.94
2023-03-30T14:12:14.971Z,99778.81
2023-03-30T14:14:47.021Z,99785.72
2023-03-30T14:17:18.576Z,99787.22
2023-03-30T14:19:57.297Z,99781.88
2023-03-30T14:22:27.606Z,99778.91
2023-03-30T14:24:59.369Z,99768.75
2023-03-30T14:27:32.936Z,99775.09
2023-03-30T14:30:00.588Z,99776.50
2023-03-30T14:32:28.464Z,99788.41
2023-03-30T14:34:57.730Z,99792.34
2023-03-30T14:37:26.920Z,99803.28
2023-03-30T14:39:56.153Z,99782.53
2023-03-30T14:42:27.197Z,99781.28
2023-03-30T14:44:56.690Z,99790.63
2023-03-30T14:47:26.116Z,99789.22
2023-03-30T14:49:55.704Z,99781.13
2023-03-30T14:52:26.652Z,99780.38
2023-03-30T14:55:05.664Z,99802.22
2023-03-30T14:57:38.039Z,99808.31
2023-03-30T15:00:20.441Z,99812.78
2023-03-30T15:02:50.706Z,99798.25
2023-03-30T15:05:19.196Z,99809.34
2023-03-30T15:07:49.702Z,99794.84
2023-03-30T15:10:23.946Z,99785.38
2023-03-30T15:12:52.677Z,99801.56
2023-03-30T15:15:23.071Z,99800.28
2023-03-30T15:17:51.469Z,99784.31
2023-03-30T15:20:19.748Z,99799.72
2023-03-30T15:22:51.686Z,99794.03
2023-03-30T15:25:20.717Z,99783.97
2023-03-30T15:27:52.898Z,99775.50
2023-03-30T15:30:34.432Z,99803.47
2023-03-30T15:33:02.581Z,99801.88
2023-03-30T15:35:33.008Z,99803.13
2023-03-30T15:38:03.256Z,99774.66
2023-03-30T15:40:36.131Z,99801.28
2023-03-30T15:43:15.391Z,99786.31
2023-03-30T15:45:48.763Z,99785.31
2023-03-30T15:48:19.384Z,99790.50
2023-03-30T15:50:50.944Z,99785.53
2023-03-30T15:53:24.725Z,99804.00
2023-03-30T15:55:53.185Z,99790.53
2023-03-30T15:58:25.744Z,99784.00
2023-03-30T16:00:53.575Z,99803.69
2023-03-30T16:03:34.318Z,99792.06
2023-03-30T16:06:02.095Z,99798.84
2023-03-30T16:08:31.237Z,99792.25
2023-03-30T16:10:59.042Z,99782.91
2023-03-30T16:13:26.738Z,99789.84
2023-03-30T16:15:54.927Z,99788.41
2023-03-30T16:18:22.688Z,99790.88
2023-03-30T16:20:50.414Z,99778.84
2023-03-30T16:23:18.111Z,99797.09
2023-03-30T16:25:47.277Z,99788.75
2023-03-30T16:28:17.489Z,99770.97
2023-03-30T16:30:47.613Z,99783.47
2023-03-30T16:33:15.405Z,99782.94
2023-03-30T16:35:43.144Z,99797.34
2023-03-30T16:38:12.310Z,99784.69
2023-03-30T16:40:43.013Z,99791.63
2023-03-30T16:43:12.332Z,99783.41
2023-03-30T16:45:40.399Z,99785.66
2023-03-30T16:48:08.130Z,99795.03
2023-03-30T16:50:38.702Z,99787.53
2023-03-30T16:53:07.427Z,99786.84
2023-03-30T16:55:35.348Z,99769.97
2023-03-30T16:58:03.116Z,99787.59
2023-03-30T17:00:33.544Z,99792.81
2023-03-30T17:03:01.227Z,99783.06
2023-03-30T17:05:30.013Z,99792.72
2023-03-30T17:07:58.493Z,99779.16
2023-03-30T17:10:27.826Z,99785.72
2023-03-30T17:12:56.265Z,99797.06
2023-03-30T17:15:25.355Z,99798.03
2023-03-30T17:17:54.589Z,99793.56
2023-03-30T17:20:26.181Z,99804.59
2023-03-30T17:22:53.858Z,99808.38
2023-03-30T17:25:23.778Z,99818.03
2023-03-30T17:27:52.507Z,99804.19
2023-03-30T17:30:23.537Z,99808.41
2023-03-30T17:32:52.096Z,99803.91
2023-03-30T17:35:21.801Z,99815.66
2023-03-30T17:37:49.792Z,99810.91
2023-03-30T17:40:20.496Z,99806.00
2023-03-30T17:42:48.514Z,99815.66
2023-03-30T17:45:18.008Z,99803.50
2023-03-30T17:47:46.157Z,99813.16
2023-03-30T17:50:27.152Z,99819.31
2023-03-30T17:52:55.874Z,99819.88
2023-03-30T17:55:25.390Z,99822.38
2023-03-30T17:57:53.211Z,99814.09
2023-03-30T18:00:24.358Z,99797.44
2023-03-30T18:02:52.636Z,99812.88
2023-03-30T18:05:21.285Z,99810.31
2023-03-30T18:07:50.844Z,99828.97
2023-03-30T18:10:24.329Z,99813.69
2023-03-30T18:12:52.768Z,99820.78
2023-03-30T18:15:21.844Z,99820.91
2023-03-30T18:17:49.920Z,99820.09
2023-03-30T18:20:23.961Z,99818.38
2023-03-30T18:22:53.058Z,99816.13
2023-03-30T18:25:31.632Z,99823.69
2023-03-30T18:28:00.460Z,99826.84
2023-03-30T18:30:30.472Z,99832.03
2023-03-30T18:32:58.615Z,99836.72
2023-03-30T18:35:27.644Z,99832.06
2023-03-30T18:37:57.116Z,99829.38
2023-03-30T18:40:27.598Z,99835.28
2023-03-30T18:42:55.806Z,99838.44
2023-03-30T18:45:26.798Z,99846.50
2023-03-30T18:47:54.758Z,99841.66
2023-03-30T18:50:24.972Z,99836.97
2023-03-30T18:52:52.687Z,99832.50
2023-03-30T18:55:21.785Z,99837.31
2023-03-30T18:57:49.784Z,99846.19
2023-03-30T19:00:21.403Z,99857.06
2023-03-30T19:02:50.017Z,99862.69
2023-03-30T19:05:19.996Z,99860.75
2023-03-30T19:07:47.825Z,99845.84
2023-03-30T19:10:17.206Z,99857.13
2023-03-30T19:12:46.948Z,99868.38
2023-03-30T19:15:19.990Z,99853.88
2023-03-30T19:17:48.066Z,99834.94
2023-03-30T19:20:16.452Z,99849.28
2023-03-30T19:22:44.264Z,99842.41
2023-03-30T19:25:13.161Z,99858.16
2023-03-30T19:27:51.973Z,99854.56
2023-03-30T19:30:32.279Z,99845.84
2023-03-30T19:33:01.826Z,99855.88
2023-03-30T19:35:30.621Z,99842.22
2023-03-30T19:37:58.361Z,99843.25
2023-03-30T19:40:26.409Z,99847.53
2023-03-30T19:42:54.265Z,99839.25
2023-03-30T19:45:23.515Z,99840.59
2023-03-30T19:47:52.770Z,99846.44
2023-03-30T19:50:23.217Z,99842.22
2023-03-30T19:52:51.418Z,99845.66
2023-03-30T19:55:20.056Z,99837.06
2023-03-30T19:57:47.772Z,99848.75
2023-03-30T20:00:17.319Z,99836.88
2023-03-30T20:02:47.261Z,99846.00
2023-03-30T20:05:16.663Z,99848.56
2023-03-30T20:07:45.596Z,99842.91
2023-03-30T20:10:15.630Z,99825.09
2023-03-30T20:12:43.665Z,99832.50
2023-03-30T20:15:12.326Z,99824.91
2023-03-30T20:17:40.636Z,99832.91
2023-03-30T20:20:12.778Z,99824.78
2023-03-30T20:22:43.063Z,99826.09
2023-03-30T20:25:13.048Z,99828.53
2023-03-30T20:27:40.908Z,99830.78
2023-03-30T20:30:11.602Z,99819.84
2023-03-30T20:32:39.724Z,99825.38
2023-03-30T20:38:04.443Z,99822.25
2023-03-30T20:40:32.382Z,99812.63
2023-03-30T20:43:02.159Z,99819.34
2023-03-30T20:45:30.572Z,99817.19
2023-03-30T20:47:58.643Z,99820.69
2023-03-30T20:50:27.220Z,99822.38
2023-03-30T20:52:54.949Z,99817.53
2023-03-30T20:55:24.040Z,99814.63
2023-03-30T20:57:51.728Z,99801.56
2023-03-30T21:00:20.642Z,99809.13
2023-03-30T21:02:48.314Z,99803.19
2023-03-30T21:05:16.240Z,99811.72
2023-03-30T21:07:47.163Z,99806.34
2023-03-30T21:10:16.375Z,99799.44
2023-03-30T21:12:45.578Z,99799.44
2023-03-30T21:15:14.083Z,99793.91
2023-03-30T21:17:41.967Z,99793.59
2023-03-30T21:20:11.638Z,99794.53
2023-03-30T21:22:39.316Z,99790.81
2023-03-30T21:25:07.662Z,99793.34
2023-03-30T21:27:35.495Z,99791.88
2023-03-30T21:30:05.196Z,99791.94
2023-03-30T21:32:32.997Z,99792.06
2023-03-30T21:35:00.749Z,99789.19
2023-03-30T21:37:28.394Z,99794.63
2023-03-30T21:39:56.200Z,99790.03
2023-03-30T21:42:23.888Z,99787.38
2023-03-30T21:44:51.561Z,99782.34
2023-03-30T21:47:20.770Z,99773.66
2023-03-30T21:49:48.417Z,99791.63
2023-03-30T21:52:16.142Z,99784.72
2023-03-30T21:54:43.781Z,99778.44
2023-03-30T21:57:11.537Z,99778.72
2023-03-30T21:59:39.311Z,99773.13
2023-03-30T22:02:06.983Z,99783.91
2023-03-30T22:04:36.078Z,99777.91
2023-03-30T22:07:04.094Z,99765.03
2023-03-30T22:09:32.104Z,99774.16
2023-03-30T22:11:59.943Z,99779.63
2023-03-30T22:14:27.711Z,99760.44
2023-03-30T22:16:55.467Z,99767.03
2023-03-30T22:19:24.526Z,99761.47
2023-03-30T22:21:53.594Z,99754.16
2023-03-30T22:24:21.372Z,99758.19
2023-03-30T22:26:49.203Z,99742.72
2023-03-30T22:29:20.606Z,99750.09
2023-03-30T22:31:48.337Z,99753.53
2023-03-30T22:34:16.224Z,99740.31
2023-03-30T22:36:43.977Z,99731.34
2023-03-30T22:39:13.023Z,99730.19
2023-03-30T22:41:41.119Z,99730.78
2023-03-30T22:44:08.842Z,99719.81
2023-03-30T22:46:36.541Z,99723.09
2023-03-30T22:49:04.182Z,99722.97
2023-03-30T22:51:33.976Z,99732.97
2023-03-30T22:54:01.750Z,99720.69
2023-03-30T22:56:31.441Z,99736.25
2023-03-30T22:59:00.818Z,99734.69
2023-03-30T23:01:32.285Z,99727.06
2023-03-30T23:04:00.663Z,99724.25
2023-03-30T23:06:28.430Z,99723.16
2023-03-30T23:08:56.103Z,99719.00
2023-03-30T23:11:23.905Z,99711.91
2023-03-30T23:13:53.954Z,99716.25
2023-03-30T23:16:21.773Z,99711.59
2023-03-30T23:18:49.823Z,99693.59
2023-03-30T23:21:17.855Z,99697.28
2023-03-30T23:23:45.651Z,99684.69
2023-03-30T23:26:13.376Z,99675.28
2023-03-30T23:28:42.945Z,99687.16
2023-03-30T23:31:13.872Z,99681.59
2023-03-30T23:33:41.856Z,99675.84
2023-03-30T23:36:13.400Z,99670.53
2023-03-30T23:38:41.424Z,99669.97
2023-03-30T23:41:09.248Z,99667.50
2023-03-30T23:43:37.043Z,99666.78
2023-03-30T23:46:05.308Z,99671.13
2023-03-30T23:48:34.627Z,99659.75
2023-03-30T23:51:02.448Z,99650.94
2023-03-30T23:53:30.320Z,99651.41
2023-03-30T23:55:58.286Z,99639.69
2023-03-30T23:58:26.340Z,99633.50
